Eldora, Iowa
Current Conditions -  °F | °C
As of 12:55 AM on Sunday 21 Dec 2014 (Local Time) from KIFA Reporting Station
Moderate Fog Moderate Fog  
Wind Chill: 26°   Ceiling: 200
Heat Index: 33°   Visibility: 0.5mi
Dew Point: 32°   Wind: 8mph
Humidity: 96%   Direction: 150°SSE
Pressure: 30.07"   Gusts: NA
Location:  42.36°N, 93.1°W
Report Text: KIFA 210655Z AUTO 15007KT 1/2SM FG OVC002 01/00 A3007 RMK AO2 T00050000
Loading
Personal Weather Stations






























Interactive Weather Map New forecast layout! Learn more

10-Day Weather Forecast

Advertisements
Track Severe Weather on mobile